This is the latest recevied weather packets stored in our database for station/object CE1RLP-34. If no packets are shown the sender has not sent any weather packets the latest 1 day(s).
| Time | Temp. | Humidity | Pressure | Rain* | Wind** | Luminosity | Snow |
|---|---|---|---|---|---|---|---|
| 1778097014 | 25° C | 13% | 1083.4 hPa | - | - | - | - |
| 1778093409 | 27.78° C | 11% | 1083.4 hPa | - | - | - | - |
| 1778088933 | 28.89° C | 11% | 1083.7 hPa | - | - | - | - |
| 1778088031 | 29.44° C | 11% | 1084 hPa | - | - | - | - |
| 1778079921 | 23.33° C | 14% | 1084.7 hPa | - | - | - | - |
| 1778078118 | 20.56° C | 16% | 1084.7 hPa | - | - | - | - |
| 1778074513 | 15° C | 18% | 1084 hPa | - | - | - | - |
| 1778067333 | 10° C | 23% | 1083.5 hPa | - | - | - | - |
| 1778062825 | 10° C | 23% | 1083 hPa | - | - | - | - |
| 1778061925 | 10° C | 24% | 1082.9 hPa | - | - | - | - |
| 1778059220 | 10° C | 24% | 1082.8 hPa | - | - | - | - |
| 1778058320 | 10° C | 24% | 1082.7 hPa | - | - | - | - |
| 1778055615 | 10° C | 25% | 1082.9 hPa | - | - | - | - |
| 1778054715 | 10.56° C | 26% | 1083 hPa | - | - | - | - |
| 1778052913 | 10.56° C | 24% | 1082.9 hPa | - | - | - | - |
| 1778052010 | 11.11° C | 25% | 1082.9 hPa | - | - | - | - |
| 1778051110 | 11.11° C | 24% | 1082.9 hPa | - | - | - | - |
| 1778046633 | 12.22° C | 20% | 1083.1 hPa | - | - | - | - |
| 1778045732 | 12.22° C | 16% | 1083.3 hPa | - | - | - | - |
| 1778043930 | 12.78° C | 12% | 1083.3 hPa | - | - | - | - |
| 1778043027 | 12.78° C | 13% | 1083.5 hPa | - | - | - | - |
| 1778042127 | 12.78° C | 12% | 1083.6 hPa | - | - | - | - |
| 1778041224 | 12.78° C | 10% | 1083.7 hPa | - | - | - | - |
| 1778040324 | 13.33° C | 10% | 1083.7 hPa | - | - | - | - |
| 1778039422 | 13.33° C | 10% | 1083.6 hPa | - | - | - | - |
* Rain since midnight (hover to see other rain measurements)
** Current wind speed in m/s (hover to see current wind gust speed)